createdAt,value
2023-03-22T00:02:26.764Z,6.75
2023-03-22T00:04:54.116Z,6.74
2023-03-22T00:07:21.413Z,6.80
2023-03-22T00:09:48.828Z,6.79
2023-03-22T00:12:16.219Z,6.73
2023-03-22T00:14:43.535Z,6.73
2023-03-22T00:17:11.425Z,6.72
2023-03-22T00:19:42.453Z,6.77
2023-03-22T00:22:11.796Z,6.87
2023-03-22T00:24:39.176Z,6.77
2023-03-22T00:27:06.685Z,6.84
2023-03-22T00:29:34.045Z,6.85
2023-03-22T00:32:01.338Z,6.83
2023-03-22T00:34:31.843Z,6.86
2023-03-22T00:37:00.407Z,6.79
2023-03-22T00:39:27.977Z,6.77
2023-03-22T00:41:55.291Z,6.77
2023-03-22T00:44:22.524Z,6.72
2023-03-22T00:46:49.789Z,6.63
2023-03-22T00:49:17.388Z,6.61
2023-03-22T00:51:44.765Z,6.53
2023-03-22T00:54:12.471Z,6.53
2023-03-22T00:56:40.854Z,6.58
2023-03-22T00:59:13.168Z,6.50
2023-03-22T01:01:41.831Z,6.53
2023-03-22T01:04:09.283Z,6.51
2023-03-22T01:06:37.885Z,6.48
2023-03-22T01:09:05.319Z,6.33
2023-03-22T01:11:32.542Z,6.33
2023-03-22T01:13:59.957Z,6.31
2023-03-22T01:16:27.393Z,6.35
2023-03-22T01:18:54.946Z,6.21
2023-03-22T01:21:22.464Z,6.20
2023-03-22T01:23:51.086Z,6.30
2023-03-22T01:26:18.269Z,6.18
2023-03-22T01:28:45.693Z,6.19
2023-03-22T01:31:13.037Z,6.15
2023-03-22T01:33:40.334Z,6.24
2023-03-22T01:36:42.819Z,6.26
2023-03-22T01:44:13.626Z,6.15
2023-03-22T01:46:41.833Z,6.08
2023-03-22T01:49:12.450Z,6.12
2023-03-22T01:51:43.688Z,6.09
2023-03-22T01:54:30.881Z,6.06
2023-03-22T01:56:59.856Z,6.09
2023-03-22T01:59:35.770Z,6.16
2023-03-22T02:02:26.108Z,6.05
2023-03-22T02:05:01.831Z,6.00
2023-03-22T02:07:32.174Z,5.98
2023-03-22T02:10:02.238Z,6.05
2023-03-22T02:12:40.727Z,6.15
2023-03-22T02:15:34.232Z,6.12
2023-03-22T02:18:43.301Z,6.18
2023-03-22T02:21:19.880Z,6.13
2023-03-22T02:24:02.529Z,6.20
2023-03-22T02:26:44.456Z,6.08
2023-03-22T02:29:26.594Z,6.04
2023-03-22T02:32:23.901Z,6.07
2023-03-22T02:34:54.730Z,6.00
2023-03-22T02:37:34.463Z,5.98
2023-03-22T02:40:16.979Z,5.90
2023-03-22T02:42:47.304Z,5.99
2023-03-22T02:45:21.432Z,5.88
2023-03-22T02:47:50.114Z,5.86
2023-03-22T02:50:23.325Z,6.02
2023-03-22T02:52:53.917Z,6.08
2023-03-22T02:55:26.585Z,6.04
2023-03-22T02:58:03.610Z,6.26
2023-03-22T03:00:31.856Z,6.45
2023-03-22T03:03:11.492Z,6.53
2023-03-22T03:05:54.266Z,6.53
2023-03-22T03:08:22.335Z,6.51
2023-03-22T03:10:50.672Z,6.50
2023-03-22T03:13:18.635Z,6.51
2023-03-22T03:15:49.040Z,6.49
2023-03-22T03:18:48.834Z,6.43
2023-03-22T03:21:35.179Z,6.38
2023-03-22T03:24:14.916Z,6.47
2023-03-22T03:26:43.564Z,6.68
2023-03-22T03:29:14.832Z,6.74
2023-03-22T03:31:48.348Z,6.81
2023-03-22T03:34:18.589Z,6.80
2023-03-22T03:36:52.725Z,6.84
2023-03-22T03:39:21.497Z,7.01
2023-03-22T03:41:50.479Z,7.23
2023-03-22T03:44:18.249Z,7.52
2023-03-22T03:46:46.360Z,7.78
2023-03-22T03:49:14.783Z,8.16
2023-03-22T03:51:46.770Z,8.45
2023-03-22T03:54:14.143Z,8.82
2023-03-22T03:56:41.677Z,9.14
2023-03-22T03:59:09.457Z,9.59
2023-03-22T04:01:36.795Z,10.12
2023-03-22T04:04:14.429Z,10.43
2023-03-22T04:06:46.736Z,10.69
2023-03-22T04:09:18.273Z,11.02
2023-03-22T04:11:50.756Z,11.44
2023-03-22T04:14:18.298Z,11.84
2023-03-22T04:16:48.794Z,12.21
2023-03-22T04:19:20.114Z,12.49
2023-03-22T04:21:47.556Z,12.94
2023-03-22T04:24:15.289Z,13.16
2023-03-22T04:26:45.724Z,13.62
2023-03-22T04:29:32.464Z,14.15
2023-03-22T04:32:19.491Z,14.45
2023-03-22T04:34:47.022Z,14.76
2023-03-22T04:37:17.632Z,15.06
2023-03-22T04:40:01.336Z,15.45
2023-03-22T04:42:47.222Z,15.87
2023-03-22T04:45:22.405Z,16.21
2023-03-22T04:47:55.866Z,16.51
2023-03-22T04:50:23.298Z,16.82
2023-03-22T04:52:56.146Z,17.30
2023-03-22T04:55:23.900Z,17.52
2023-03-22T04:57:51.450Z,17.80
2023-03-22T05:00:19.068Z,18.10
2023-03-22T05:02:47.336Z,18.32
2023-03-22T05:05:21.922Z,18.60
2023-03-22T05:07:51.408Z,18.77
2023-03-22T05:10:19.241Z,19.01
2023-03-22T05:12:47.404Z,19.26
2023-03-22T05:15:39.907Z,19.59
2023-03-22T05:18:07.881Z,19.81
2023-03-22T05:20:36.885Z,20.30
2023-03-22T05:23:24.732Z,20.44
2023-03-22T05:25:58.483Z,20.59
2023-03-22T05:28:29.019Z,20.87
2023-03-22T05:31:17.431Z,21.07
2023-03-22T05:33:52.387Z,21.22
2023-03-22T05:36:23.169Z,21.37
2023-03-22T05:39:10.637Z,21.48
2023-03-22T05:41:38.134Z,21.54
2023-03-22T05:44:05.827Z,21.47
2023-03-22T05:46:35.765Z,21.32
2023-03-22T05:49:35.505Z,21.35
2023-03-22T05:52:06.215Z,21.18
2023-03-22T05:54:52.161Z,21.22
2023-03-22T05:57:20.072Z,21.37
2023-03-22T05:59:47.471Z,21.51
2023-03-22T06:02:22.520Z,21.72
2023-03-22T06:04:50.580Z,21.95
2023-03-22T06:07:19.085Z,22.28
2023-03-22T06:09:56.099Z,22.58
2023-03-22T06:12:28.894Z,22.82
2023-03-22T06:15:04.460Z,22.99
2023-03-22T06:17:51.884Z,23.15
2023-03-22T06:20:23.641Z,23.26
2023-03-22T06:22:57.999Z,23.38
2023-03-22T06:25:25.478Z,23.59
2023-03-22T06:27:53.126Z,23.66
2023-03-22T06:30:22.145Z,23.75
2023-03-22T06:33:08.156Z,23.68
2023-03-22T06:35:39.055Z,23.52
2023-03-22T06:38:08.919Z,23.39
2023-03-22T06:40:38.308Z,23.27
2023-03-22T06:43:07.322Z,23.24
2023-03-22T06:45:38.109Z,23.29
2023-03-22T06:48:06.420Z,23.22
2023-03-22T06:50:46.361Z,23.42
2023-03-22T06:53:18.547Z,23.42
2023-03-22T06:55:45.888Z,23.38
2023-03-22T06:58:22.207Z,23.02
2023-03-22T07:00:49.505Z,22.96
2023-03-22T07:03:19.221Z,22.73
2023-03-22T07:05:52.481Z,22.63
2023-03-22T07:08:20.116Z,22.23
2023-03-22T07:10:51.414Z,22.05
2023-03-22T07:13:21.937Z,21.74
2023-03-22T07:15:56.161Z,21.65
2023-03-22T07:18:36.374Z,21.35
2023-03-22T07:21:03.915Z,20.94
2023-03-22T07:23:31.368Z,20.78
2023-03-22T07:26:06.295Z,20.66
2023-03-22T07:28:36.106Z,20.34
2023-03-22T07:31:06.982Z,20.23
2023-03-22T07:33:49.816Z,20.02
2023-03-22T07:36:17.260Z,20.03
2023-03-22T07:38:44.782Z,19.91
2023-03-22T07:41:17.979Z,19.88
2023-03-22T07:44:07.646Z,19.85
2023-03-22T07:46:47.664Z,19.72
2023-03-22T07:49:31.607Z,19.64
2023-03-22T07:52:11.898Z,19.59
2023-03-22T07:54:39.570Z,19.68
2023-03-22T07:57:08.905Z,19.62
2023-03-22T07:59:42.144Z,19.58
2023-03-22T08:02:10.337Z,19.64
2023-03-22T08:04:43.999Z,19.72
2023-03-22T08:07:20.831Z,19.84
2023-03-22T08:09:48.323Z,19.94
2023-03-22T08:12:15.619Z,19.87
2023-03-22T08:14:46.673Z,19.97
2023-03-22T08:17:18.959Z,19.90
2023-03-22T08:19:46.842Z,19.89
2023-03-22T08:22:26.359Z,19.80
2023-03-22T08:25:12.336Z,19.71
2023-03-22T08:27:40.890Z,19.74
2023-03-22T08:30:10.123Z,19.74
2023-03-22T08:32:37.530Z,19.72
2023-03-22T08:35:05.411Z,19.62
2023-03-22T08:37:32.786Z,19.50
2023-03-22T08:40:02.333Z,19.43
2023-03-22T08:42:38.933Z,19.43
2023-03-22T08:45:07.075Z,19.30
2023-03-22T08:47:37.010Z,19.13
2023-03-22T08:50:08.903Z,19.03
2023-03-22T08:52:47.139Z,18.88
2023-03-22T08:55:22.373Z,18.77
2023-03-22T08:58:07.996Z,18.70
2023-03-22T09:00:51.535Z,18.65
2023-03-22T09:03:34.016Z,18.59
2023-03-22T09:06:01.909Z,18.57
2023-03-22T09:08:34.086Z,18.55
2023-03-22T09:11:11.471Z,18.66
2023-03-22T09:13:39.324Z,18.62
2023-03-22T09:16:09.184Z,18.57
2023-03-22T09:18:37.434Z,18.51
2023-03-22T09:21:10.602Z,18.50
2023-03-22T09:23:50.648Z,18.35
2023-03-22T09:26:23.083Z,18.40
2023-03-22T09:28:52.538Z,18.37
2023-03-22T09:31:20.691Z,18.30
2023-03-22T09:33:55.385Z,18.17
2023-03-22T09:36:22.670Z,18.09
2023-03-22T09:38:50.708Z,18.01
2023-03-22T09:41:22.307Z,17.96
2023-03-22T09:43:59.120Z,18.03
2023-03-22T09:46:30.175Z,17.89
2023-03-22T09:48:58.454Z,17.69
2023-03-22T09:51:31.958Z,17.58
2023-03-22T09:53:59.219Z,17.58
2023-03-22T09:56:28.017Z,17.54
2023-03-22T09:58:55.205Z,17.42
2023-03-22T10:01:26.425Z,17.40
2023-03-22T10:04:01.265Z,17.47
2023-03-22T10:06:29.589Z,17.45
2023-03-22T10:09:19.670Z,17.37
2023-03-22T10:11:49.632Z,17.33
2023-03-22T10:14:25.309Z,17.25
2023-03-22T10:16:55.391Z,17.09
2023-03-22T10:19:27.352Z,17.13
2023-03-22T10:21:56.588Z,17.03
2023-03-22T10:24:27.251Z,16.93
2023-03-22T10:26:54.743Z,16.75
2023-03-22T10:29:42.291Z,16.80
2023-03-22T10:32:12.496Z,16.64
2023-03-22T10:34:39.910Z,16.61
2023-03-22T10:37:07.712Z,16.45
2023-03-22T10:39:55.239Z,16.43
2023-03-22T10:42:25.144Z,16.46
2023-03-22T10:45:03.356Z,16.36
2023-03-22T10:47:42.664Z,16.29
2023-03-22T10:50:17.294Z,16.12
2023-03-22T10:52:57.859Z,16.12
2023-03-22T10:55:25.735Z,16.20
2023-03-22T10:58:12.757Z,16.03
2023-03-22T11:03:40.941Z,15.88
2023-03-22T11:06:12.129Z,15.78
2023-03-22T11:08:59.691Z,15.67
2023-03-22T11:11:31.302Z,15.58
2023-03-22T11:14:04.727Z,15.44
2023-03-22T11:16:32.695Z,15.50
2023-03-22T11:19:02.018Z,15.45
2023-03-22T11:21:32.283Z,15.31
2023-03-22T11:24:02.338Z,15.22
2023-03-22T11:26:35.895Z,15.13
2023-03-22T11:29:10.860Z,15.04
2023-03-22T11:32:04.624Z,15.17
2023-03-22T11:34:32.036Z,15.08
2023-03-22T11:37:08.050Z,15.03
2023-03-22T11:39:35.234Z,15.09
2023-03-22T11:42:06.645Z,15.04
2023-03-22T11:44:35.785Z,15.06
2023-03-22T11:47:04.688Z,15.06
2023-03-22T11:49:38.401Z,15.04
2023-03-22T11:52:26.445Z,14.88
2023-03-22T11:54:54.935Z,14.79
2023-03-22T11:57:24.742Z,14.78
2023-03-22T12:00:07.279Z,14.75
2023-03-22T12:02:57.867Z,14.51
2023-03-22T12:05:27.756Z,14.74
2023-03-22T12:08:03.884Z,14.78
2023-03-22T12:10:39.079Z,14.76
2023-03-22T12:13:11.988Z,14.71
2023-03-22T12:15:42.261Z,14.71
2023-03-22T12:18:16.801Z,14.64
2023-03-22T12:20:54.028Z,14.56
2023-03-22T12:23:23.593Z,14.52
2023-03-22T12:25:53.829Z,14.51
2023-03-22T12:28:23.423Z,14.55
2023-03-22T12:30:53.441Z,14.56
2023-03-22T12:33:33.102Z,14.56
2023-03-22T12:36:05.293Z,14.50
2023-03-22T12:38:44.367Z,14.51
2023-03-22T12:41:14.843Z,14.46
2023-03-22T12:43:42.242Z,14.41
2023-03-22T12:46:15.541Z,14.45
2023-03-22T12:48:46.614Z,14.59
2023-03-22T12:51:14.612Z,14.43
2023-03-22T12:53:52.135Z,14.39
2023-03-22T12:56:23.296Z,14.34
2023-03-22T12:58:52.941Z,14.04
2023-03-22T13:01:20.657Z,14.17
2023-03-22T13:03:52.345Z,14.16
2023-03-22T13:06:33.916Z,14.00
2023-03-22T13:09:16.740Z,13.76
2023-03-22T13:11:45.981Z,13.40
2023-03-22T13:14:33.304Z,13.36
2023-03-22T13:17:01.410Z,13.20
2023-03-22T13:19:37.967Z,13.00
2023-03-22T13:22:16.288Z,13.07
2023-03-22T13:25:10.659Z,12.84
2023-03-22T13:27:40.682Z,12.97
2023-03-22T13:30:34.960Z,13.21
2023-03-22T13:33:03.877Z,13.12
2023-03-22T13:35:45.185Z,13.02
2023-03-22T13:38:19.852Z,12.87
2023-03-22T13:40:47.169Z,12.91
2023-03-22T13:43:17.648Z,12.84
2023-03-22T13:46:17.437Z,12.56
2023-03-22T13:48:48.019Z,12.58
2023-03-22T13:51:15.972Z,12.58
2023-03-22T13:53:47.490Z,12.37
2023-03-22T13:56:28.325Z,12.24
2023-03-22T13:58:55.617Z,12.38
2023-03-22T14:01:29.378Z,12.36
2023-03-22T14:04:01.560Z,12.46
2023-03-22T14:06:32.093Z,12.45
2023-03-22T14:09:02.575Z,12.50
2023-03-22T14:11:33.215Z,12.44
2023-03-22T14:14:04.535Z,12.46
2023-03-22T14:16:38.479Z,12.41
2023-03-22T14:19:06.735Z,12.43
2023-03-22T14:21:42.012Z,12.33
